CYNR

METAR CYNR 271600Z AUTO 02003KT 9SM BKN088 13/09 A2987 RMK AO2 SLP120
METAR
LOCATION
CYNR
DATE - TIME
271600Z
WIND
020 TRUE @ 3 KNOTS
VISIBILITY
9SM
RUNWAY VISUAL RANGE
NOT REPORTED
WEATHER
CLOUDINESS
BKN088
TEMP / DEWPOINT
13 ºC / 9 ºC
ALTIMETER
29.87 in. Hg
RECENT WEATHER
NOT REPORTED
WIND SHEAR
NOT REPORTED
REMARKS
RMK AO2 SLP120
SEA LEVEL PRESSURE: hPa

CYNR

METAR CYNR 271500Z AUTO 03006KT 9SM SCT082 BKN096 11/09 A2987 RMK AO2 SLP122
METAR
LOCATION
CYNR
DATE - TIME
271500Z
WIND
030 TRUE @ 6 KNOTS
VISIBILITY
9SM
RUNWAY VISUAL RANGE
NOT REPORTED
WEATHER
CLOUDINESS
SCT082 BKN096
TEMP / DEWPOINT
11 ºC / 9 ºC
ALTIMETER
29.87 in. Hg
RECENT WEATHER
NOT REPORTED
WIND SHEAR
NOT REPORTED
REMARKS
RMK AO2 SLP122
SEA LEVEL PRESSURE: hPa

CYNR

METAR CYNR 271400Z AUTO 03006KT 9SM BKN082 BKN110 09/08 A2988 RMK AO2 SLP125
METAR
LOCATION
CYNR
DATE - TIME
271400Z
WIND
030 TRUE @ 6 KNOTS
VISIBILITY
9SM
RUNWAY VISUAL RANGE
NOT REPORTED
WEATHER
CLOUDINESS
BKN082 BKN110
TEMP / DEWPOINT
9 ºC / 8 ºC
ALTIMETER
29.88 in. Hg
RECENT WEATHER
NOT REPORTED
WIND SHEAR
NOT REPORTED
REMARKS
RMK AO2 SLP125
SEA LEVEL PRESSURE: hPa

Your time UTC time
 
 
Weather data provided by AXYS Technologies Inc., www.axystechnologies.com
 
Station History